createdAt,value
2018-11-29T00:01:53.323Z,41.75
2018-11-29T00:04:21.483Z,42.03
2018-11-29T00:06:49.665Z,44.98
2018-11-29T00:09:17.859Z,51.53
2018-11-29T00:11:46.046Z,47.27
2018-11-29T00:14:14.263Z,48.55
2018-11-29T00:16:42.465Z,43.13
2018-11-29T00:19:10.660Z,42.70
2018-11-29T00:21:38.821Z,49.63
2018-11-29T00:24:06.993Z,48.48
2018-11-29T00:26:35.212Z,46.02
2018-11-29T00:29:03.358Z,49.77
2018-11-29T00:31:31.595Z,50.73
2018-11-29T00:33:59.801Z,47.65
2018-11-29T00:36:27.950Z,46.45
2018-11-29T00:38:56.134Z,47.27
2018-11-29T00:41:24.353Z,49.77
2018-11-29T00:43:52.543Z,50.30
2018-11-29T00:46:20.707Z,46.33
2018-11-29T00:48:48.997Z,60.52
2018-11-29T00:51:17.155Z,58.50
2018-11-29T00:53:45.358Z,51.42
2018-11-29T00:56:13.527Z,56.65
2018-11-29T00:58:41.783Z,50.45
2018-11-29T01:01:10.014Z,56.45
2018-11-29T01:03:38.256Z,52.95
2018-11-29T01:06:06.536Z,49.25
2018-11-29T01:08:34.788Z,54.70
2018-11-29T01:11:03.033Z,54.77
2018-11-29T01:13:31.260Z,48.52
2018-11-29T01:15:59.511Z,49.13
2018-11-29T01:18:27.741Z,53.30
2018-11-29T01:20:55.914Z,50.30
2018-11-29T01:23:24.165Z,49.30
2018-11-29T01:25:52.625Z,46.77
2018-11-29T01:28:20.857Z,50.05
2018-11-29T01:30:49.102Z,51.83
2018-11-29T01:33:17.325Z,52.38
2018-11-29T01:35:45.593Z,52.60
2018-11-29T01:38:13.831Z,45.90
2018-11-29T01:40:42.011Z,52.20
2018-11-29T01:43:10.269Z,49.77
2018-11-29T01:45:38.499Z,50.52
2018-11-29T01:48:06.715Z,50.10
2018-11-29T01:50:35.011Z,44.03
2018-11-29T01:53:03.245Z,51.48
2018-11-29T01:55:31.548Z,54.85
2018-11-29T01:57:59.793Z,49.95
2018-11-29T02:00:28.030Z,50.48
2018-11-29T02:02:56.291Z,51.00
2018-11-29T02:05:24.504Z,47.55
2018-11-29T02:07:52.793Z,47.13
2018-11-29T02:10:26.563Z,49.77
2018-11-29T02:12:54.923Z,48.83
2018-11-29T02:15:23.267Z,48.52
2018-11-29T02:17:51.615Z,51.75
2018-11-29T02:20:20.013Z,51.68
2018-11-29T02:22:48.280Z,50.98
2018-11-29T02:25:16.568Z,47.70
2018-11-29T02:27:44.839Z,51.90
2018-11-29T02:30:14.796Z,48.58
2018-11-29T02:32:43.055Z,55.98
2018-11-29T02:35:11.275Z,53.65
2018-11-29T02:37:39.478Z,47.48
2018-11-29T02:40:09.421Z,53.65
2018-11-29T02:42:37.587Z,57.70
2018-11-29T02:45:07.208Z,51.42
2018-11-29T02:47:35.420Z,54.63
2018-11-29T02:50:03.643Z,56.92
2018-11-29T02:52:32.014Z,61.37
2018-11-29T02:55:00.263Z,49.53
2018-11-29T02:57:28.489Z,53.70
2018-11-29T02:59:56.691Z,54.08
2018-11-29T03:02:24.837Z,54.60
2018-11-29T03:04:53.108Z,54.85
2018-11-29T03:07:21.311Z,53.87
2018-11-29T03:09:49.466Z,51.00
2018-11-29T03:12:17.660Z,56.48
2018-11-29T03:14:45.829Z,53.73
2018-11-29T03:17:14.104Z,55.80
2018-11-29T03:19:42.295Z,55.38
2018-11-29T03:22:10.574Z,57.10
2018-11-29T03:24:38.767Z,56.80
2018-11-29T03:27:07.017Z,58.52
2018-11-29T03:29:35.227Z,55.23
2018-11-29T03:32:03.464Z,59.60
2018-11-29T03:34:31.684Z,60.43
2018-11-29T03:36:59.842Z,57.40
2018-11-29T03:39:28.071Z,54.18
2018-11-29T03:41:56.207Z,59.33
2018-11-29T03:44:24.441Z,56.05
2018-11-29T03:46:52.690Z,52.05
2018-11-29T03:49:20.878Z,59.90
2018-11-29T03:51:49.067Z,56.23
2018-11-29T03:54:17.243Z,46.92
2018-11-29T03:56:45.452Z,53.70
2018-11-29T03:59:13.692Z,58.78
2018-11-29T04:01:41.943Z,58.92
2018-11-29T04:04:10.112Z,57.75
2018-11-29T04:06:38.327Z,56.90
2018-11-29T04:09:08.722Z,60.48
2018-11-29T04:11:36.931Z,58.80
2018-11-29T04:14:05.205Z,59.90
2018-11-29T04:16:33.452Z,57.35
2018-11-29T04:19:02.040Z,55.52
2018-11-29T04:21:30.379Z,59.90
2018-11-29T04:23:58.592Z,57.67
2018-11-29T04:26:26.788Z,53.48
2018-11-29T04:28:54.966Z,50.25
2018-11-29T04:31:23.223Z,49.67
2018-11-29T04:33:51.419Z,51.08
2018-11-29T04:36:19.666Z,50.10
2018-11-29T04:38:47.908Z,47.65
2018-11-29T04:41:16.047Z,58.95
2018-11-29T04:43:44.267Z,59.05
2018-11-29T04:46:31.601Z,51.65
2018-11-29T04:48:59.885Z,56.58
2018-11-29T04:51:28.041Z,52.88
2018-11-29T04:53:56.230Z,57.08
2018-11-29T04:56:24.445Z,61.10
2018-11-29T04:58:52.623Z,54.73
2018-11-29T05:01:20.803Z,54.75
2018-11-29T05:03:48.986Z,53.58
2018-11-29T05:06:17.225Z,49.85
2018-11-29T05:08:45.465Z,57.62
2018-11-29T05:11:13.747Z,54.30
2018-11-29T05:13:41.979Z,55.28
2018-11-29T05:16:10.189Z,55.60
2018-11-29T05:18:38.449Z,54.58
2018-11-29T05:21:06.682Z,56.10
2018-11-29T05:23:34.856Z,52.20
2018-11-29T05:26:03.009Z,50.55
2018-11-29T05:28:31.310Z,54.27
2018-11-29T05:30:59.567Z,56.77
2018-11-29T05:33:27.787Z,55.50
2018-11-29T05:35:55.967Z,55.75
2018-11-29T05:38:24.232Z,53.95
2018-11-29T05:40:52.565Z,55.65
2018-11-29T05:43:20.687Z,51.15
2018-11-29T05:45:48.823Z,52.27
2018-11-29T05:48:16.909Z,49.33
2018-11-29T05:50:45.068Z,51.68
2018-11-29T05:53:13.199Z,50.67
2018-11-29T05:55:41.375Z,48.92
2018-11-29T05:58:09.530Z,56.50
2018-11-29T06:00:37.715Z,53.78
2018-11-29T06:03:05.864Z,55.63
2018-11-29T06:05:34.015Z,57.65
2018-11-29T06:08:02.145Z,54.08
2018-11-29T06:10:30.315Z,61.05
2018-11-29T06:12:58.417Z,54.95
2018-11-29T06:15:26.707Z,54.40
2018-11-29T06:17:54.799Z,52.75
2018-11-29T06:20:22.978Z,54.58
2018-11-29T06:22:51.216Z,51.10
2018-11-29T06:25:19.399Z,62.25
2018-11-29T06:27:47.560Z,57.95
2018-11-29T06:30:23.089Z,56.33
2018-11-29T06:32:52.401Z,55.65
2018-11-29T06:35:19.752Z,58.10
2018-11-29T06:37:47.899Z,52.38
2018-11-29T06:40:16.378Z,47.20
2018-11-29T06:42:44.629Z,50.73
2018-11-29T06:45:13.427Z,50.08
2018-11-29T06:47:41.644Z,48.20
2018-11-29T06:50:13.014Z,47.62
2018-11-29T06:52:41.421Z,51.75
2018-11-29T06:55:10.262Z,42.88
2018-11-29T06:57:38.421Z,48.65
2018-11-29T07:00:12.195Z,53.28
2018-11-29T07:02:40.285Z,49.83
2018-11-29T07:05:08.689Z,46.68
2018-11-29T07:07:36.809Z,52.00
2018-11-29T07:10:06.829Z,46.53
2018-11-29T07:12:35.096Z,47.00
2018-11-29T07:15:03.189Z,45.40
2018-11-29T07:17:31.321Z,41.68
2018-11-29T07:19:59.458Z,42.98
2018-11-29T07:22:28.364Z,43.60
2018-11-29T07:24:56.499Z,38.98
2018-11-29T07:27:24.649Z,39.05
2018-11-29T07:29:52.828Z,38.60
2018-11-29T07:32:23.319Z,38.25
2018-11-29T07:34:51.563Z,39.88
2018-11-29T07:37:19.690Z,36.03
2018-11-29T07:39:47.840Z,34.43
2018-11-29T07:42:15.971Z,37.42
2018-11-29T07:44:44.139Z,36.42
2018-11-29T07:47:12.245Z,33.28
2018-11-29T07:49:40.399Z,29.55
2018-11-29T07:52:08.595Z,33.15
2018-11-29T07:54:36.775Z,33.00
2018-11-29T07:57:04.926Z,28.83
2018-11-29T07:59:33.094Z,25.57
2018-11-29T08:02:01.193Z,28.40
2018-11-29T08:04:29.461Z,31.27
2018-11-29T08:06:57.638Z,30.10
2018-11-29T08:09:25.747Z,27.60
2018-11-29T08:11:53.875Z,30.92
2018-11-29T08:14:22.074Z,29.90
2018-11-29T08:16:50.251Z,31.05
2018-11-29T08:19:18.425Z,29.32
2018-11-29T08:21:46.549Z,29.55
2018-11-29T08:24:14.704Z,32.48
2018-11-29T08:26:42.859Z,31.27
2018-11-29T08:29:11.021Z,29.63
2018-11-29T08:31:39.121Z,34.25
2018-11-29T08:34:07.293Z,33.70
2018-11-29T08:36:35.411Z,29.48
2018-11-29T08:39:04.819Z,35.43
2018-11-29T08:41:32.967Z,34.33
2018-11-29T08:44:01.071Z,34.43
2018-11-29T08:46:29.251Z,32.45
2018-11-29T08:48:57.471Z,33.38
2018-11-29T08:51:25.633Z,36.75
2018-11-29T08:53:53.919Z,34.67
2018-11-29T08:56:22.031Z,36.30
2018-11-29T08:58:50.177Z,38.92
2018-11-29T09:01:18.319Z,34.70
2018-11-29T09:03:46.434Z,35.25
2018-11-29T09:06:14.631Z,32.17
2018-11-29T09:08:42.771Z,35.30
2018-11-29T09:11:10.926Z,34.63
2018-11-29T09:13:39.027Z,40.23
2018-11-29T09:16:07.217Z,39.98
2018-11-29T09:18:35.287Z,42.95
2018-11-29T09:21:03.435Z,37.55
2018-11-29T09:23:31.607Z,39.38
2018-11-29T09:25:59.709Z,43.42
2018-11-29T09:28:27.799Z,40.10
2018-11-29T09:30:56.000Z,40.05
2018-11-29T09:33:24.129Z,38.02
2018-11-29T09:35:52.269Z,38.53
2018-11-29T09:38:20.427Z,34.85
2018-11-29T09:40:48.573Z,39.85
2018-11-29T09:43:16.742Z,39.55
2018-11-29T09:45:45.018Z,34.95
2018-11-29T09:48:13.249Z,38.28
2018-11-29T09:50:41.458Z,41.05
2018-11-29T09:53:09.681Z,39.80
2018-11-29T09:55:37.796Z,43.55
2018-11-29T09:58:05.917Z,41.37
2018-11-29T10:00:34.065Z,42.78
2018-11-29T10:03:11.527Z,40.50
2018-11-29T10:05:40.076Z,39.03
2018-11-29T10:08:11.859Z,40.38
2018-11-29T10:10:36.871Z,37.78
2018-11-29T10:13:05.115Z,39.27
2018-11-29T10:15:33.537Z,41.25
2018-11-29T10:18:01.675Z,38.40
2018-11-29T10:20:29.925Z,36.23
2018-11-29T10:22:58.036Z,36.23
2018-11-29T10:25:26.207Z,40.15
2018-11-29T10:27:55.256Z,38.53
2018-11-29T10:30:25.062Z,38.28
2018-11-29T10:32:53.195Z,39.45
2018-11-29T10:35:21.455Z,36.15
2018-11-29T10:37:49.598Z,38.42
2018-11-29T10:40:17.882Z,38.05
2018-11-29T10:42:46.046Z,34.50
2018-11-29T10:45:14.705Z,40.52
2018-11-29T10:47:43.263Z,38.88
2018-11-29T10:50:12.949Z,38.78
2018-11-29T10:52:41.129Z,37.48
2018-11-29T10:55:10.072Z,40.73
2018-11-29T10:57:38.198Z,42.33
2018-11-29T11:00:08.983Z,37.40
2018-11-29T11:02:41.421Z,37.17
2018-11-29T11:05:09.587Z,39.85
2018-11-29T11:07:38.751Z,42.43
2018-11-29T11:10:06.128Z,39.87
2018-11-29T11:12:34.276Z,38.40
2018-11-29T11:15:02.398Z,39.63
2018-11-29T11:17:30.522Z,35.10
2018-11-29T11:19:58.658Z,36.80
2018-11-29T11:22:26.788Z,35.13
2018-11-29T11:24:54.949Z,38.13
2018-11-29T11:27:23.065Z,40.23
2018-11-29T11:29:51.224Z,42.05
2018-11-29T11:32:19.451Z,33.00
2018-11-29T11:34:47.684Z,35.47
2018-11-29T11:37:15.826Z,37.63
2018-11-29T11:39:44.039Z,34.90
2018-11-29T11:42:12.135Z,35.57
2018-11-29T11:44:40.330Z,37.57
2018-11-29T11:47:08.456Z,33.67
2018-11-29T11:49:36.621Z,34.40
2018-11-29T11:52:04.763Z,37.10
2018-11-29T11:54:32.960Z,35.37
2018-11-29T11:57:01.105Z,33.50
2018-11-29T11:59:29.272Z,33.77
2018-11-29T12:01:57.405Z,37.90
2018-11-29T12:04:25.585Z,32.03
2018-11-29T12:06:53.705Z,37.20
2018-11-29T12:09:22.108Z,31.68
2018-11-29T12:11:50.406Z,36.97
2018-11-29T12:14:18.532Z,33.50
2018-11-29T12:16:46.723Z,33.97
2018-11-29T12:19:14.934Z,30.90
2018-11-29T12:21:43.066Z,35.20
2018-11-29T12:24:11.189Z,34.13
2018-11-29T12:26:39.340Z,33.27
2018-11-29T12:29:07.437Z,34.87
2018-11-29T12:31:35.677Z,32.20
2018-11-29T12:34:03.815Z,38.27
2018-11-29T12:36:31.928Z,35.70
2018-11-29T12:39:00.133Z,30.83
2018-11-29T12:41:28.394Z,35.73
2018-11-29T12:43:56.437Z,34.70
2018-11-29T12:46:24.622Z,32.57
2018-11-29T12:48:52.803Z,32.83
2018-11-29T12:51:20.916Z,33.27
2018-11-29T12:53:49.037Z,30.97
2018-11-29T12:56:17.165Z,35.83
2018-11-29T12:58:45.252Z,32.80
2018-11-29T13:01:13.556Z,31.20
2018-11-29T13:03:41.726Z,30.83
2018-11-29T13:06:09.853Z,33.80
2018-11-29T13:08:38.062Z,34.33
2018-11-29T13:11:08.572Z,36.47
2018-11-29T13:13:34.501Z,33.43
2018-11-29T13:16:02.777Z,31.33
2018-11-29T13:18:31.003Z,34.10
2018-11-29T13:21:03.273Z,31.23
2018-11-29T13:23:31.429Z,32.70
2018-11-29T13:25:59.620Z,35.20
2018-11-29T13:28:27.727Z,31.83
2018-11-29T13:30:55.911Z,33.23
2018-11-29T13:33:24.067Z,36.07
2018-11-29T13:35:52.238Z,34.80
2018-11-29T13:38:20.544Z,31.63
2018-11-29T13:40:49.316Z,34.43
2018-11-29T13:43:17.506Z,32.73
2018-11-29T13:45:45.749Z,38.77
2018-11-29T13:48:13.951Z,36.50
2018-11-29T13:50:42.280Z,35.30
2018-11-29T13:53:10.505Z,33.13
2018-11-29T13:55:38.904Z,32.97
2018-11-29T13:58:06.948Z,33.47
2018-11-29T14:00:35.243Z,34.33
2018-11-29T14:03:08.041Z,36.50
2018-11-29T14:05:36.561Z,37.37
2018-11-29T14:08:05.249Z,40.20
2018-11-29T14:10:35.663Z,34.87
2018-11-29T14:13:04.126Z,35.23
2018-11-29T14:15:32.339Z,35.68
2018-11-29T14:18:00.577Z,42.40
2018-11-29T14:20:28.779Z,35.70
2018-11-29T14:22:56.951Z,37.08
2018-11-29T14:25:25.118Z,37.47
2018-11-29T14:27:53.840Z,36.42
2018-11-29T14:30:25.448Z,36.25
2018-11-29T14:32:54.089Z,33.55
2018-11-29T14:35:22.325Z,36.30
2018-11-29T14:37:50.570Z,39.15
2018-11-29T14:40:19.231Z,40.17
2018-11-29T14:42:47.440Z,37.15
2018-11-29T14:45:16.222Z,35.20
2018-11-29T14:47:44.417Z,39.10
2018-11-29T14:50:28.412Z,38.38
2018-11-29T14:52:56.671Z,37.45
2018-11-29T14:55:24.911Z,39.65
2018-11-29T14:57:53.042Z,37.00
2018-11-29T15:00:21.289Z,39.20
2018-11-29T15:02:49.475Z,38.92
2018-11-29T15:05:25.731Z,35.17
2018-11-29T15:07:53.901Z,36.95
2018-11-29T15:10:22.096Z,35.52
2018-11-29T15:12:50.244Z,37.73
2018-11-29T15:15:18.413Z,37.78
2018-11-29T15:17:47.001Z,33.85
2018-11-29T15:20:17.750Z,34.83
2018-11-29T15:22:45.999Z,36.93
2018-11-29T15:25:14.147Z,32.98
2018-11-29T15:27:42.352Z,35.52
2018-11-29T15:30:11.348Z,35.03
2018-11-29T15:32:39.547Z,36.30
2018-11-29T15:35:07.978Z,38.23
2018-11-29T15:37:36.197Z,37.98
2018-11-29T15:40:05.516Z,32.55
2018-11-29T15:42:33.772Z,35.35
2018-11-29T15:45:01.921Z,37.53
2018-11-29T15:47:30.059Z,33.35
2018-11-29T15:49:58.324Z,35.35
2018-11-29T15:52:26.449Z,27.45
2018-11-29T15:54:54.582Z,39.35
2018-11-29T15:57:22.772Z,35.55
2018-11-29T15:59:50.916Z,36.68
2018-11-29T16:02:19.082Z,29.40
2018-11-29T16:04:47.205Z,35.95
2018-11-29T16:07:15.342Z,33.78
2018-11-29T16:09:43.530Z,35.33
2018-11-29T16:12:11.988Z,34.18
2018-11-29T16:14:43.445Z,31.50
2018-11-29T16:17:08.342Z,31.12
2018-11-29T16:19:36.483Z,35.43
2018-11-29T16:22:05.009Z,30.80
2018-11-29T16:24:33.200Z,29.82
2018-11-29T16:27:01.407Z,34.27
2018-11-29T16:29:29.510Z,33.60
2018-11-29T16:31:57.725Z,33.75
2018-11-29T16:34:25.882Z,35.40
2018-11-29T16:36:54.044Z,33.42
2018-11-29T16:39:22.243Z,33.02
2018-11-29T16:41:51.325Z,33.60
2018-11-29T16:44:19.485Z,37.03
2018-11-29T16:46:47.715Z,34.03
2018-11-29T16:49:15.864Z,34.88
2018-11-29T16:51:44.012Z,30.57
2018-11-29T17:02:40.180Z,29.10
2018-11-29T17:05:09.073Z,32.60
2018-11-29T17:07:37.197Z,28.83
2018-11-29T17:10:06.864Z,32.15
2018-11-29T17:15:22.681Z,33.58
2018-11-29T17:20:35.421Z,35.98
2018-11-29T17:23:03.621Z,27.13
2018-11-29T17:25:31.912Z,34.25
2018-11-29T17:28:00.018Z,28.62
2018-11-29T17:30:28.196Z,31.42
2018-11-29T17:32:56.928Z,27.42
2018-11-29T17:35:25.208Z,32.55
2018-11-29T17:37:54.790Z,31.70
2018-11-29T17:40:22.948Z,34.67
2018-11-29T17:42:51.606Z,31.80
2018-11-29T17:45:25.216Z,36.95
2018-11-29T17:47:53.998Z,29.35
2018-11-29T17:50:22.785Z,30.90
2018-11-29T17:52:50.981Z,32.73
2018-11-29T17:55:19.143Z,30.05
2018-11-29T17:57:47.288Z,29.20
2018-11-29T18:00:17.257Z,27.52
2018-11-29T18:02:45.447Z,30.05
2018-11-29T18:05:13.615Z,29.92
2018-11-29T18:07:41.741Z,27.42
2018-11-29T18:10:12.631Z,28.25
2018-11-29T18:12:40.784Z,27.58
2018-11-29T18:15:09.866Z,27.67
2018-11-29T18:17:38.102Z,30.62
2018-11-29T18:20:06.926Z,33.55
2018-11-29T18:22:35.090Z,29.07
2018-11-29T18:25:03.251Z,31.40
2018-11-29T18:27:31.576Z,30.97
2018-11-29T18:29:59.850Z,26.57
2018-11-29T18:32:27.953Z,28.27
2018-11-29T18:34:56.145Z,31.50
2018-11-29T18:37:24.920Z,32.25
2018-11-29T18:39:53.307Z,26.75
2018-11-29T18:42:22.032Z,32.28
2018-11-29T18:44:52.242Z,25.52
2018-11-29T18:47:20.327Z,26.20
2018-11-29T18:49:48.544Z,30.17
2018-11-29T18:52:16.702Z,31.25
2018-11-29T18:54:44.966Z,26.20
2018-11-29T18:57:24.008Z,30.45
2018-11-29T18:59:52.879Z,25.48
2018-11-29T19:02:21.249Z,32.15
2018-11-29T19:04:49.499Z,32.23
2018-11-29T19:07:17.776Z,27.52
2018-11-29T19:09:45.982Z,32.15
2018-11-29T19:12:14.185Z,30.90
2018-11-29T19:14:42.396Z,28.67
2018-11-29T19:17:10.609Z,31.20
2018-11-29T19:19:38.856Z,27.60
2018-11-29T19:22:07.136Z,29.77
2018-11-29T19:24:35.356Z,26.68
2018-11-29T19:27:21.257Z,27.98
2018-11-29T19:29:49.462Z,29.30
2018-11-29T19:32:17.594Z,27.00
2018-11-29T19:34:45.811Z,29.75
2018-11-29T19:37:13.954Z,27.85
2018-11-29T19:39:42.156Z,26.85
2018-11-29T19:42:10.393Z,26.48
2018-11-29T19:44:38.612Z,29.72
2018-11-29T19:47:44.666Z,29.05
2018-11-29T19:50:23.948Z,29.27
2018-11-29T19:52:53.661Z,31.80
2018-11-29T19:55:22.612Z,30.85
2018-11-29T19:57:50.873Z,25.08
2018-11-29T20:00:19.210Z,26.95
2018-11-29T20:02:47.597Z,30.32
2018-11-29T20:05:15.777Z,28.67
2018-11-29T20:07:44.066Z,29.18
2018-11-29T20:10:13.645Z,30.10
2018-11-29T20:12:41.891Z,30.95
2018-11-29T20:15:11.005Z,29.75
2018-11-29T20:17:39.215Z,31.85
2018-11-29T20:20:08.237Z,27.93
2018-11-29T20:22:37.593Z,30.20
2018-11-29T20:25:07.423Z,28.95
2018-11-29T20:27:46.969Z,28.55
2018-11-29T20:30:17.628Z,29.07
2018-11-29T20:32:46.058Z,29.80
2018-11-29T20:35:14.286Z,31.52
2018-11-29T20:37:43.066Z,27.40
2018-11-29T20:40:13.175Z,31.87
2018-11-29T20:42:43.664Z,28.05
2018-11-29T20:45:15.807Z,30.57
2018-11-29T20:47:46.730Z,34.08
2018-11-29T20:50:28.246Z,30.80
2018-11-29T20:52:57.138Z,31.70
2018-11-29T20:55:28.882Z,32.00
2018-11-29T20:57:57.208Z,30.70
2018-11-29T21:00:25.345Z,31.85
2018-11-29T21:02:53.552Z,29.87
2018-11-29T21:05:22.160Z,35.38
2018-11-29T21:07:51.819Z,31.90
2018-11-29T21:10:20.561Z,33.85
2018-11-29T21:12:48.742Z,33.98
2018-11-29T21:15:16.855Z,30.12
2018-11-29T21:17:44.996Z,30.88
2018-11-29T21:20:13.791Z,33.45
2018-11-29T21:22:42.476Z,33.38
2018-11-29T21:25:11.263Z,31.85
2018-11-29T21:27:39.470Z,35.05
2018-11-29T21:30:09.774Z,31.55
2018-11-29T21:32:37.944Z,29.12
2018-11-29T21:35:06.214Z,32.38
2018-11-29T21:37:34.438Z,30.50
2018-11-29T21:40:02.593Z,30.48
2018-11-29T21:42:30.780Z,33.15
2018-11-29T21:44:59.063Z,29.35
2018-11-29T21:47:27.289Z,36.70
2018-11-29T21:49:55.481Z,35.85
2018-11-29T21:52:23.649Z,37.15
2018-11-29T21:54:52.149Z,32.93
2018-11-29T21:57:20.743Z,33.50
2018-11-29T21:59:49.285Z,35.75
2018-11-29T22:02:17.844Z,32.80
2018-11-29T22:04:46.323Z,33.45
2018-11-29T22:07:14.849Z,31.75
2018-11-29T22:09:43.333Z,33.48
2018-11-29T22:12:12.241Z,29.37
2018-11-29T22:14:40.723Z,30.48
2018-11-29T22:17:09.345Z,34.73
2018-11-29T22:19:37.927Z,30.77
2018-11-29T22:22:07.034Z,31.12
2018-11-29T22:24:35.469Z,36.85
2018-11-29T22:27:03.941Z,31.82
2018-11-29T22:29:32.585Z,32.83
2018-11-29T22:32:01.227Z,30.08
2018-11-29T22:34:29.875Z,35.60
2018-11-29T22:36:58.318Z,31.25
2018-11-29T22:39:26.696Z,34.80
2018-11-29T22:41:54.894Z,33.13
2018-11-29T22:44:23.031Z,38.20
2018-11-29T22:46:51.234Z,38.13
2018-11-29T22:49:19.347Z,35.63
2018-11-29T22:51:47.476Z,32.30
2018-11-29T22:54:15.679Z,34.67
2018-11-29T22:56:43.849Z,33.40
2018-11-29T22:59:12.054Z,31.37
2018-11-29T23:01:40.169Z,33.02
2018-11-29T23:04:08.761Z,35.48
2018-11-29T23:06:36.886Z,35.55
2018-11-29T23:12:01.012Z,33.40
2018-11-29T23:14:29.127Z,35.98
2018-11-29T23:16:57.263Z,30.75
2018-11-29T23:19:25.420Z,33.10
2018-11-29T23:21:53.568Z,36.42
2018-11-29T23:24:21.640Z,31.93
2018-11-29T23:26:49.774Z,28.70
2018-11-29T23:29:17.897Z,30.65
2018-11-29T23:31:46.695Z,29.65
2018-11-29T23:34:14.837Z,33.38
2018-11-29T23:36:42.992Z,30.55
2018-11-29T23:39:11.096Z,32.48
2018-11-29T23:41:39.221Z,31.55
2018-11-29T23:44:07.373Z,34.40
2018-11-29T23:46:35.492Z,29.32
2018-11-29T23:49:03.625Z,33.53
2018-11-29T23:51:31.785Z,34.13
2018-11-29T23:53:59.903Z,30.75
2018-11-29T23:56:28.061Z,31.25
2018-11-29T23:58:56.196Z,38.13
